Seapace — 9HA2223 — position and weather

sailwx.info

Track history (hours):
 
Tides and Currents Weather Stations Pressure Air Temp Water Temp Dewpoint Dewpoint Depression Visibility Wind Speed Wind Dir Waves Ship Positions

Seapace

Last reported at 2017-Sep-21 14:24 UTC. Time now 2017-Sep-22 20:53 UTC.
Position N 36°35' W 000°56'.

Length 190 m; draft 12.7 m.

Type: Cargo ship. MMSI: 248184000.

Date/timePositionNaut miles runAvg speedWind from/ knotsBaromVisibWave heightAir tempDewpointWater temp
2017-Sep-21 14:24N 36°35' W 000°56'11012.2
2017-Sep-21 05:22N 36°51' E 001°20'512.3
2017-Sep-21 05:00N 36°51' E 001°26'612.3
2017-Sep-21 04:30N 36°52' E 001°33'612.3
2017-Sep-21 04:00N 36°53' E 001°41'1012.2
2017-Sep-21 03:13N 36°55' E 001°53'2311.8
2017-Sep-21 01:17N 36°58' E 002°21'1711.8
2017-Sep-20 23:51N 37°00' E 002°42'48110.9
2017-Sep-19 03:40N 36°53' E 012°44'211.9
2017-Sep-19 03:30N 36°52' E 012°47'611.9
2017-Sep-19 03:00N 36°51' E 012°54'612.0
2017-Sep-19 02:30N 36°49' E 013°01'612.6
2017-Sep-19 02:00N 36°48' E 013°09'612.3
2017-Sep-19 01:30N 36°46' E 013°16'612.2
2017-Sep-19 01:00N 36°45' E 013°23'912.1
2017-Sep-19 00:16N 36°42' E 013°34'312.1
2017-Sep-18 23:59N 36°41' E 013°38'712.0
2017-Sep-18 23:27N 36°39' E 013°46'612.0
2017-Sep-18 22:59N 36°38' E 013°52'711.9
2017-Sep-18 22:26N 36°35' E 014°00'512.0
2017-Sep-18 21:58N 36°34' E 014°07'812.0
2017-Sep-18 21:21N 36°31' E 014°15'412.0
2017-Sep-18 21:00N 36°29' E 014°20'612.0
2017-Sep-18 20:30N 36°28' E 014°27'612.2
2017-Sep-18 19:59N 36°26' E 014°35'912.1
2017-Sep-18 19:14N 36°24' E 014°46'312.1
2017-Sep-18 19:00N 36°23' E 014°49'611.9
2017-Sep-18 18:30N 36°22' E 014°56'611.7
2017-Sep-18 18:00N 36°20' E 015°03'611.6
2017-Sep-18 17:30N 36°19' E 015°10'31612.5
2017-Sep-17 16:10N 35°10' E 021°30'2 9.2
2017-Sep-17 16:00N 35°09' E 021°31'6312.4
2017-Sep-17 10:53N 34°54' E 022°47'812.6
2017-Sep-17 10:13N 34°53' E 022°57'312.5
2017-Sep-17 09:59N 34°52' E 023°00'612.6
2017-Sep-17 09:30N 34°51' E 023°08'  
2017-Sep-14 14:36N 31°49' E 034°38'0 0.0
2017-Sep-13 19:09N 31°49' E 034°38'0 0.0
2017-Sep-13 17:42N 31°49' E 034°38'0 0.0
2017-Sep-13 16:24N 31°49' E 034°38'0 0.0
2017-Sep-12 11:57N 31°49' E 034°39'0 0.0
2017-Sep-12 11:06N 31°49' E 034°39'0 0.0
2017-Sep-12 09:00N 31°49' E 034°39'0 0.0
2017-Sep-12 08:21N 31°49' E 034°39'0 0.0
2017-Sep-12 07:57N 31°49' E 034°39'0 0.0
2017-Sep-12 07:30N 31°49' E 034°39'0 0.0
2017-Sep-12 06:57N 31°49' E 034°39'0 0.0
2017-Sep-12 06:24N 31°49' E 034°39'0 0.0
2017-Sep-12 05:51N 31°49' E 034°39'0 0.0
2017-Sep-12 05:27N 31°49' E 034°39'0 0.0
2017-Sep-12 04:45N 31°49' E 034°39'0 0.0
2017-Sep-12 03:45N 31°49' E 034°39'0 0.0
2017-Sep-12 03:30N 31°49' E 034°39'0 0.0
2017-Sep-12 03:00N 31°49' E 034°39'0 0.0
2017-Sep-12 02:30N 31°49' E 034°39'0 0.0
2017-Sep-12 00:57N 31°49' E 034°39'  
Track history (hours):
 
Tides and Currents Weather Stations Pressure Air Temp Water Temp Dewpoint Dewpoint Depression Visibility Wind Speed Wind Dir Waves Ship Positions

Seapace

Last reported at 2017-Sep-21 14:24 UTC. Time now 2017-Sep-22 20:53 UTC.
Position N 36°35' W 000°56'.

Length 190 m; draft 12.7 m.

Type: Cargo ship. MMSI: 248184000.

Date/timePositionNaut miles runAvg speedWind from/ knotsBaromVisibWave heightAir tempDewpointWater temp
2017-Sep-21 14:24N 36°35' W 000°56'11012.2
2017-Sep-21 05:22N 36°51' E 001°20'512.3
2017-Sep-21 05:00N 36°51' E 001°26'612.3
2017-Sep-21 04:30N 36°52' E 001°33'612.3
2017-Sep-21 04:00N 36°53' E 001°41'1012.2
2017-Sep-21 03:13N 36°55' E 001°53'2311.8
2017-Sep-21 01:17N 36°58' E 002°21'1711.8
2017-Sep-20 23:51N 37°00' E 002°42'48110.9
2017-Sep-19 03:40N 36°53' E 012°44'211.9
2017-Sep-19 03:30N 36°52' E 012°47'611.9
2017-Sep-19 03:00N 36°51' E 012°54'612.0
2017-Sep-19 02:30N 36°49' E 013°01'612.6
2017-Sep-19 02:00N 36°48' E 013°09'612.3
2017-Sep-19 01:30N 36°46' E 013°16'612.2
2017-Sep-19 01:00N 36°45' E 013°23'912.1
2017-Sep-19 00:16N 36°42' E 013°34'312.1
2017-Sep-18 23:59N 36°41' E 013°38'712.0
2017-Sep-18 23:27N 36°39' E 013°46'612.0
2017-Sep-18 22:59N 36°38' E 013°52'711.9
2017-Sep-18 22:26N 36°35' E 014°00'512.0
2017-Sep-18 21:58N 36°34' E 014°07'812.0
2017-Sep-18 21:21N 36°31' E 014°15'412.0
2017-Sep-18 21:00N 36°29' E 014°20'612.0
2017-Sep-18 20:30N 36°28' E 014°27'612.2
2017-Sep-18 19:59N 36°26' E 014°35'912.1
2017-Sep-18 19:14N 36°24' E 014°46'312.1
2017-Sep-18 19:00N 36°23' E 014°49'611.9
2017-Sep-18 18:30N 36°22' E 014°56'611.7
2017-Sep-18 18:00N 36°20' E 015°03'611.6
2017-Sep-18 17:30N 36°19' E 015°10'31612.5
2017-Sep-17 16:10N 35°10' E 021°30'2 9.2
2017-Sep-17 16:00N 35°09' E 021°31'6312.4
2017-Sep-17 10:53N 34°54' E 022°47'812.6
2017-Sep-17 10:13N 34°53' E 022°57'312.5
2017-Sep-17 09:59N 34°52' E 023°00'612.6
2017-Sep-17 09:30N 34°51' E 023°08'  
2017-Sep-14 14:36N 31°49' E 034°38'0 0.0
2017-Sep-13 19:09N 31°49' E 034°38'0 0.0
2017-Sep-13 17:42N 31°49' E 034°38'0 0.0
2017-Sep-13 16:24N 31°49' E 034°38'0 0.0
2017-Sep-12 11:57N 31°49' E 034°39'0 0.0
2017-Sep-12 11:06N 31°49' E 034°39'0 0.0
2017-Sep-12 09:00N 31°49' E 034°39'0 0.0
2017-Sep-12 08:21N 31°49' E 034°39'0 0.0
2017-Sep-12 07:57N 31°49' E 034°39'0 0.0
2017-Sep-12 07:30N 31°49' E 034°39'0 0.0
2017-Sep-12 06:57N 31°49' E 034°39'0 0.0
2017-Sep-12 06:24N 31°49' E 034°39'0 0.0
2017-Sep-12 05:51N 31°49' E 034°39'0 0.0
2017-Sep-12 05:27N 31°49' E 034°39'0 0.0
2017-Sep-12 04:45N 31°49' E 034°39'0 0.0
2017-Sep-12 03:45N 31°49' E 034°39'0 0.0
2017-Sep-12 03:30N 31°49' E 034°39'0 0.0
2017-Sep-12 03:00N 31°49' E 034°39'0 0.0
2017-Sep-12 02:30N 31°49' E 034°39'0 0.0
2017-Sep-12 00:57N 31°49' E 034°39'  

Dump ship's entire track history